createdAt,value
2024-04-24T00:01:55.921Z,1.78
2024-04-24T00:05:09.316Z,1.75
2024-04-24T00:08:16.145Z,1.67
2024-04-24T00:11:25.698Z,1.64
2024-04-24T00:14:38.809Z,1.64
2024-04-24T00:17:49.769Z,1.63
2024-04-24T00:21:09.523Z,1.60
2024-04-24T00:24:23.326Z,1.69
2024-04-24T00:27:36.140Z,1.64
2024-04-24T00:30:48.776Z,1.70
2024-04-24T00:33:57.851Z,1.67
2024-04-24T00:37:11.524Z,1.62
2024-04-24T00:40:18.943Z,1.55
2024-04-24T00:43:25.200Z,1.64
2024-04-24T00:46:32.419Z,1.69
2024-04-24T00:49:38.662Z,1.64
2024-04-24T00:52:49.797Z,1.75
2024-04-24T00:56:02.624Z,1.68
2024-04-24T00:59:16.324Z,1.62
2024-04-24T01:02:27.215Z,1.65
2024-04-24T01:05:38.418Z,1.76
2024-04-24T01:08:47.874Z,1.75
2024-04-24T01:12:00.678Z,1.66
2024-04-24T01:15:10.007Z,1.74
2024-04-24T01:18:22.480Z,1.69
2024-04-24T01:22:01.725Z,1.51
2024-04-24T01:28:47.960Z,1.69
2024-04-24T01:31:55.437Z,1.48
2024-04-24T01:35:17.180Z,1.72
2024-04-24T01:38:24.992Z,1.79
2024-04-24T01:41:36.082Z,1.72
2024-04-24T01:44:45.595Z,1.71
2024-04-24T01:47:58.760Z,1.55
2024-04-24T01:51:10.884Z,1.60
2024-04-24T01:54:21.799Z,1.53
2024-04-24T01:57:33.469Z,1.54
2024-04-24T02:00:42.544Z,1.59
2024-04-24T02:04:00.534Z,1.53
2024-04-24T02:07:10.423Z,1.56
2024-04-24T02:10:18.473Z,1.60
2024-04-24T02:13:27.656Z,1.63
2024-04-24T02:16:38.120Z,1.69
2024-04-24T02:19:44.366Z,1.59
2024-04-24T02:22:59.842Z,1.41
2024-04-24T02:26:16.264Z,1.39
2024-04-24T02:29:34.529Z,1.39
2024-04-24T02:32:51.838Z,1.43
2024-04-24T02:36:01.284Z,1.51
2024-04-24T02:39:22.862Z,1.57
2024-04-24T02:42:32.214Z,1.51
2024-04-24T02:45:43.447Z,1.47
2024-04-24T02:48:52.198Z,1.29
2024-04-24T02:52:02.589Z,1.21
2024-04-24T02:55:10.432Z,1.16
2024-04-24T02:58:19.567Z,1.11
2024-04-24T03:01:31.196Z,1.10
2024-04-24T03:04:37.710Z,1.12
2024-04-24T03:07:45.043Z,1.19
2024-04-24T03:10:56.729Z,1.20
2024-04-24T03:14:04.017Z,1.16
2024-04-24T03:17:20.005Z,1.13
2024-04-24T03:20:26.802Z,0.99
2024-04-24T03:23:39.764Z,0.82
2024-04-24T03:26:48.668Z,0.77
2024-04-24T03:29:54.882Z,0.91
2024-04-24T03:33:03.362Z,0.96
2024-04-24T03:36:15.780Z,1.05
2024-04-24T03:39:27.039Z,1.07
2024-04-24T03:42:38.110Z,0.97
2024-04-24T03:45:47.482Z,1.05
2024-04-24T03:49:00.453Z,1.11
2024-04-24T03:52:09.747Z,1.21
2024-04-24T03:55:20.132Z,1.29
2024-04-24T04:01:54.336Z,1.33
2024-04-24T04:05:01.676Z,1.33
2024-04-24T04:08:09.423Z,1.23
2024-04-24T04:11:24.574Z,1.21
2024-04-24T04:14:36.652Z,1.30
2024-04-24T04:17:46.522Z,1.40
2024-04-24T04:20:55.140Z,1.52
2024-04-24T04:24:05.430Z,1.57
2024-04-24T04:27:16.611Z,1.71
2024-04-24T04:30:28.400Z,1.73
2024-04-24T04:33:38.134Z,1.74
2024-04-24T04:36:47.584Z,1.87
2024-04-24T04:39:57.577Z,1.90
2024-04-24T04:43:09.784Z,1.98
2024-04-24T04:46:18.369Z,2.10
2024-04-24T04:49:24.689Z,2.21
2024-04-24T04:52:34.506Z,2.29
2024-04-24T04:55:46.533Z,2.29
2024-04-24T04:58:59.755Z,2.19
2024-04-24T05:02:11.510Z,2.24
2024-04-24T05:05:25.790Z,2.38
2024-04-24T05:08:35.812Z,2.44
2024-04-24T05:11:47.805Z,2.50
2024-04-24T05:15:00.578Z,2.53
2024-04-24T05:21:54.243Z,2.93
2024-04-24T05:25:04.230Z,3.36
2024-04-24T05:28:38.301Z,3.43
2024-04-24T05:31:49.595Z,3.52
2024-04-24T05:35:01.627Z,3.57
2024-04-24T05:38:17.042Z,3.82
2024-04-24T05:41:30.040Z,3.94
2024-04-24T05:44:40.242Z,3.87
2024-04-24T05:47:53.436Z,3.84
2024-04-24T05:51:08.477Z,3.74
2024-04-24T05:54:19.328Z,3.32
2024-04-24T05:57:29.290Z,3.09
2024-04-24T06:00:39.780Z,3.23
2024-04-24T06:03:49.143Z,3.48
2024-04-24T06:06:58.500Z,3.56
2024-04-24T06:10:12.668Z,3.78
2024-04-24T06:13:25.623Z,3.89
2024-04-24T06:16:33.748Z,4.27
2024-04-24T06:19:49.023Z,5.05
2024-04-24T06:23:07.145Z,5.13
2024-04-24T06:26:22.343Z,5.19
2024-04-24T06:29:30.786Z,5.60
2024-04-24T06:32:39.309Z,5.60
2024-04-24T06:35:50.118Z,5.89
2024-04-24T06:38:56.736Z,6.16
2024-04-24T06:42:03.015Z,5.63
2024-04-24T06:45:12.290Z,5.11
2024-04-24T06:48:21.574Z,5.08
2024-04-24T06:51:36.407Z,5.07
2024-04-24T06:54:49.057Z,5.33
2024-04-24T06:57:58.446Z,5.84
2024-04-24T07:01:12.274Z,6.33
2024-04-24T07:04:25.656Z,5.96
2024-04-24T07:07:33.377Z,6.23
2024-04-24T07:10:41.420Z,6.46
2024-04-24T07:13:49.648Z,6.35
2024-04-24T07:16:57.813Z,6.49
2024-04-24T07:20:05.088Z,6.51
2024-04-24T07:23:18.527Z,6.87
2024-04-24T07:26:28.728Z,6.68
2024-04-24T07:29:42.463Z,7.06
2024-04-24T07:32:53.539Z,7.01
2024-04-24T07:36:07.800Z,6.96
2024-04-24T07:39:21.401Z,7.23
2024-04-24T07:42:30.402Z,7.53
2024-04-24T07:45:38.136Z,7.84
2024-04-24T07:48:48.727Z,8.13
2024-04-24T07:51:55.070Z,8.22
2024-04-24T07:55:01.356Z,8.51
2024-04-24T07:58:07.627Z,8.73
2024-04-24T08:01:15.552Z,8.66
2024-04-24T08:04:24.861Z,8.50
2024-04-24T08:07:38.344Z,8.47
2024-04-24T08:10:46.076Z,8.48
2024-04-24T08:13:56.131Z,8.41
2024-04-24T08:17:06.070Z,8.25
2024-04-24T08:20:14.673Z,7.97
2024-04-24T08:23:26.978Z,7.78
2024-04-24T08:26:38.682Z,8.05
2024-04-24T08:29:53.456Z,8.43
2024-04-24T08:33:01.723Z,8.34
2024-04-24T08:36:11.277Z,8.14
2024-04-24T08:39:20.421Z,8.16
2024-04-24T08:42:27.631Z,8.35
2024-04-24T08:45:34.232Z,8.70
2024-04-24T08:48:56.634Z,8.98
2024-04-24T08:52:07.083Z,8.82
2024-04-24T08:55:17.826Z,9.18
2024-04-24T08:58:34.438Z,9.43
2024-04-24T09:01:51.779Z,9.80
2024-04-24T09:05:05.342Z,10.16
2024-04-24T09:08:12.473Z,10.02
2024-04-24T09:11:20.061Z,9.74
2024-04-24T09:14:30.090Z,9.30
2024-04-24T09:17:41.265Z,9.59
2024-04-24T09:20:53.529Z,9.51
2024-04-24T09:24:00.210Z,9.84
2024-04-24T09:27:12.124Z,9.31
2024-04-24T09:30:20.171Z,9.19
2024-04-24T09:33:30.128Z,9.15
2024-04-24T09:36:44.840Z,9.43
2024-04-24T09:39:55.083Z,10.00
2024-04-24T09:43:10.080Z,9.87
2024-04-24T09:46:24.186Z,9.76
2024-04-24T09:52:40.719Z,9.98
2024-04-24T09:55:56.536Z,9.98
2024-04-24T09:59:06.704Z,9.74
2024-04-24T10:02:21.557Z,9.65
2024-04-24T10:05:39.686Z,9.93
2024-04-24T10:09:07.564Z,9.87
2024-04-24T10:12:47.298Z,10.37
2024-04-24T10:16:16.497Z,10.50
2024-04-24T10:19:28.652Z,10.74
2024-04-24T10:22:43.601Z,10.94
2024-04-24T10:25:53.294Z,10.60
2024-04-24T10:29:01.359Z,11.08
2024-04-24T10:32:12.056Z,11.18
2024-04-24T10:35:29.003Z,10.97
2024-04-24T10:38:41.316Z,11.14
2024-04-24T10:41:52.303Z,11.29
2024-04-24T10:45:09.557Z,11.00
2024-04-24T10:48:17.321Z,10.56
2024-04-24T10:51:35.336Z,10.32
2024-04-24T10:54:50.857Z,10.03
2024-04-24T10:57:59.294Z,9.86
2024-04-24T11:01:13.052Z,9.72
2024-04-24T11:04:22.493Z,9.75
2024-04-24T11:07:38.326Z,10.18
2024-04-24T11:10:59.373Z,10.69
2024-04-24T11:14:15.428Z,11.32
2024-04-24T11:17:29.700Z,12.02
2024-04-24T11:20:41.716Z,11.70
2024-04-24T11:23:56.830Z,11.53
2024-04-24T11:27:11.363Z,11.00
2024-04-24T11:30:25.303Z,11.13
2024-04-24T11:33:37.704Z,10.48
2024-04-24T11:36:54.847Z,10.79
2024-04-24T11:40:06.492Z,11.52
2024-04-24T11:43:16.115Z,11.82
2024-04-24T11:46:28.385Z,11.64
2024-04-24T11:49:37.141Z,11.83
2024-04-24T11:52:50.901Z,12.15
2024-04-24T11:59:19.086Z,12.33
2024-04-24T12:02:29.768Z,11.87
2024-04-24T12:05:40.719Z,11.66
2024-04-24T12:08:53.316Z,11.45
2024-04-24T12:12:03.137Z,11.73
2024-04-24T12:15:16.521Z,11.80
2024-04-24T12:18:25.270Z,11.45
2024-04-24T12:21:32.887Z,11.31
2024-04-24T12:24:42.431Z,11.25
2024-04-24T12:27:49.772Z,11.72
2024-04-24T12:30:59.999Z,11.57
2024-04-24T12:34:10.763Z,11.88
2024-04-24T12:37:25.309Z,12.17
2024-04-24T12:40:35.364Z,12.37
2024-04-24T12:43:44.145Z,12.45
2024-04-24T12:46:52.865Z,12.06
2024-04-24T12:50:03.329Z,11.84
2024-04-24T12:53:11.364Z,11.58
2024-04-24T12:56:21.494Z,11.70
2024-04-24T12:59:35.220Z,11.58
2024-04-24T13:02:43.960Z,11.21
2024-04-24T13:05:58.291Z,11.27
2024-04-24T13:09:07.104Z,10.98
2024-04-24T13:12:23.026Z,11.46
2024-04-24T13:15:30.931Z,11.08
2024-04-24T13:18:41.730Z,10.98
2024-04-24T13:21:51.353Z,10.41
2024-04-24T13:24:59.177Z,10.50
2024-04-24T13:28:08.058Z,10.89
2024-04-24T13:31:17.822Z,10.62
2024-04-24T13:34:27.915Z,10.43
2024-04-24T13:37:37.556Z,10.52
2024-04-24T13:40:47.453Z,10.87
2024-04-24T13:43:59.879Z,11.13
2024-04-24T13:47:14.423Z,11.35
2024-04-24T13:50:24.041Z,11.31
2024-04-24T13:53:31.952Z,11.15
2024-04-24T13:56:39.186Z,11.06
2024-04-24T13:59:51.072Z,10.95
2024-04-24T14:03:03.063Z,10.85
2024-04-24T14:06:09.974Z,10.76
2024-04-24T14:09:24.596Z,11.22
2024-04-24T14:12:35.693Z,11.54
2024-04-24T14:15:45.227Z,10.74
2024-04-24T14:18:55.091Z,10.57
2024-04-24T14:22:06.539Z,10.41
2024-04-24T14:25:15.069Z,10.40
2024-04-24T14:28:26.353Z,10.37
2024-04-24T14:31:34.401Z,10.27
2024-04-24T14:34:53.108Z,10.29
2024-04-24T14:38:05.995Z,10.24
2024-04-24T14:41:14.026Z,10.05
2024-04-24T14:44:21.073Z,9.91
2024-04-24T14:47:32.770Z,9.78
2024-04-24T14:50:42.967Z,9.64
2024-04-24T14:53:56.435Z,9.45
2024-04-24T14:57:05.968Z,9.29
2024-04-24T15:00:15.476Z,8.96
2024-04-24T15:03:32.373Z,8.71
2024-04-24T15:06:40.567Z,8.67
2024-04-24T15:09:49.056Z,8.55
2024-04-24T15:12:59.395Z,8.45
2024-04-24T15:16:12.421Z,8.38
2024-04-24T15:19:21.221Z,8.36
2024-04-24T15:22:32.987Z,8.14
2024-04-24T15:25:44.031Z,8.14
2024-04-24T15:28:52.514Z,8.31
2024-04-24T15:32:04.982Z,8.40
2024-04-24T15:35:18.132Z,8.71
2024-04-24T15:38:29.481Z,8.79
2024-04-24T15:41:47.637Z,8.74
2024-04-24T15:44:55.905Z,8.76
2024-04-24T15:48:07.769Z,8.74
2024-04-24T15:51:17.652Z,8.83
2024-04-24T15:54:28.366Z,8.71
2024-04-24T15:57:38.887Z,8.63
2024-04-24T16:00:50.615Z,8.61
2024-04-24T16:04:02.573Z,8.52
2024-04-24T16:07:15.778Z,8.60
2024-04-24T16:10:23.198Z,8.59
2024-04-24T16:13:29.970Z,8.51
2024-04-24T16:16:40.689Z,8.62
2024-04-24T16:19:54.824Z,8.71
2024-04-24T16:23:02.295Z,8.70
2024-04-24T16:26:10.635Z,8.61
2024-04-24T16:29:20.219Z,8.43
2024-04-24T16:32:31.779Z,8.42
2024-04-24T16:35:43.608Z,8.44
2024-04-24T16:38:53.988Z,8.19
2024-04-24T16:42:01.892Z,8.15
2024-04-24T16:45:08.265Z,8.07
2024-04-24T16:48:20.760Z,8.03
2024-04-24T16:51:30.553Z,7.92
2024-04-24T16:54:44.017Z,7.70
2024-04-24T16:58:07.651Z,7.60
2024-04-24T17:01:18.145Z,7.52
2024-04-24T17:04:29.299Z,7.43
2024-04-24T17:07:37.675Z,7.31
2024-04-24T17:10:46.170Z,7.32
2024-04-24T17:13:56.631Z,7.26
2024-04-24T17:17:12.618Z,7.13
2024-04-24T17:20:22.498Z,7.10
2024-04-24T17:23:33.572Z,6.84
2024-04-24T17:26:41.845Z,6.63
2024-04-24T17:29:48.727Z,6.56
2024-04-24T17:32:59.576Z,6.58
2024-04-24T17:36:10.108Z,6.36
2024-04-24T17:39:22.719Z,6.21
2024-04-24T17:42:29.669Z,6.01
2024-04-24T17:45:39.611Z,5.92
2024-04-24T17:48:47.278Z,5.78
2024-04-24T17:51:53.705Z,5.56
2024-04-24T17:55:02.080Z,5.44
2024-04-24T17:58:09.187Z,5.41
2024-04-24T18:01:22.373Z,5.32
2024-04-24T18:04:31.484Z,5.24
2024-04-24T18:07:40.432Z,5.12
2024-04-24T18:10:50.386Z,5.08
2024-04-24T18:13:57.154Z,4.95
2024-04-24T18:17:04.333Z,4.88
2024-04-24T18:20:19.142Z,4.84
2024-04-24T18:23:30.659Z,4.79
2024-04-24T18:26:42.630Z,4.68
2024-04-24T18:29:49.907Z,4.60
2024-04-24T18:32:57.800Z,4.51
2024-04-24T18:36:04.610Z,4.36
2024-04-24T18:39:20.750Z,4.33
2024-04-24T18:42:30.319Z,4.17
2024-04-24T18:45:36.773Z,4.09
2024-04-24T18:48:43.293Z,4.11
2024-04-24T18:51:51.016Z,4.10
2024-04-24T18:54:58.179Z,4.06
2024-04-24T18:58:04.452Z,3.97
2024-04-24T19:01:11.022Z,3.94
2024-04-24T19:04:18.308Z,3.92
2024-04-24T19:07:27.831Z,3.86
2024-04-24T19:10:39.493Z,3.82
2024-04-24T19:13:48.976Z,3.74
2024-04-24T19:16:57.644Z,3.69
2024-04-24T19:20:04.798Z,3.59
2024-04-24T19:23:19.787Z,3.48
2024-04-24T19:26:26.733Z,3.34
2024-04-24T19:29:38.470Z,3.24
2024-04-24T19:32:45.281Z,3.04
2024-04-24T19:35:56.926Z,3.07
2024-04-24T19:39:07.349Z,3.01
2024-04-24T19:42:14.423Z,2.98
2024-04-24T19:45:24.141Z,2.90
2024-04-24T19:48:34.634Z,2.82
2024-04-24T19:51:48.036Z,2.77
2024-04-24T19:55:00.169Z,2.69
2024-04-24T19:58:09.653Z,2.59
2024-04-24T20:01:19.486Z,2.44
2024-04-24T20:04:30.928Z,2.45
2024-04-24T20:07:41.705Z,2.45
2024-04-24T20:10:58.223Z,2.34
2024-04-24T20:14:09.857Z,2.19
2024-04-24T20:17:24.134Z,2.05
2024-04-24T20:20:33.785Z,2.01
2024-04-24T20:23:46.074Z,1.85
2024-04-24T20:26:52.325Z,1.79
2024-04-24T20:30:02.441Z,1.68
2024-04-24T20:33:14.930Z,1.69
2024-04-24T20:36:27.623Z,1.65
2024-04-24T20:39:38.140Z,1.64
2024-04-24T20:42:50.832Z,1.57
2024-04-24T20:45:58.101Z,1.49
2024-04-24T20:49:04.312Z,1.50
2024-04-24T20:52:14.458Z,1.50
2024-04-24T20:55:22.726Z,1.50
2024-04-24T20:58:30.368Z,1.44
2024-04-24T21:01:38.541Z,1.38
2024-04-24T21:04:47.255Z,1.28
2024-04-24T21:07:56.169Z,1.28
2024-04-24T21:11:07.836Z,1.24
2024-04-24T21:14:20.618Z,1.14
2024-04-24T21:17:26.937Z,1.07
2024-04-24T21:20:35.754Z,1.07
2024-04-24T21:23:45.604Z,0.98
2024-04-24T21:26:57.765Z,1.00
2024-04-24T21:30:06.483Z,0.91
2024-04-24T21:33:13.681Z,0.83
2024-04-24T21:36:23.591Z,0.93
2024-04-24T21:39:31.627Z,0.86
2024-04-24T21:42:51.518Z,0.85
2024-04-24T21:46:03.943Z,0.88
2024-04-24T21:49:15.631Z,0.92
2024-04-24T21:52:34.669Z,0.86
2024-04-24T21:55:43.593Z,0.84
2024-04-24T21:58:49.993Z,0.84
2024-04-24T22:02:01.746Z,0.84
2024-04-24T22:05:12.431Z,0.70
2024-04-24T22:08:26.601Z,0.67
2024-04-24T22:11:35.065Z,0.63
2024-04-24T22:14:41.526Z,0.64
2024-04-24T22:17:56.669Z,0.71
2024-04-24T22:21:09.508Z,0.73
2024-04-24T22:24:23.049Z,0.75
2024-04-24T22:27:29.341Z,0.67
2024-04-24T22:30:38.268Z,0.53
2024-04-24T22:33:57.209Z,0.42
2024-04-24T22:37:10.238Z,0.41
2024-04-24T22:40:22.652Z,0.45
2024-04-24T22:43:32.816Z,0.40
2024-04-24T22:46:40.845Z,0.37
2024-04-24T22:49:51.683Z,0.39
2024-04-24T22:53:01.044Z,0.38
2024-04-24T22:56:15.959Z,0.39
2024-04-24T22:59:29.191Z,0.44
2024-04-24T23:02:41.490Z,0.43
2024-04-24T23:05:52.635Z,0.48
2024-04-24T23:09:21.195Z,0.49
2024-04-24T23:12:31.525Z,0.45
2024-04-24T23:15:39.391Z,0.33
2024-04-24T23:18:48.743Z,0.29
2024-04-24T23:21:58.634Z,0.25
2024-04-24T23:25:08.356Z,0.26
2024-04-24T23:28:16.827Z,0.28
2024-04-24T23:31:30.225Z,0.19
2024-04-24T23:34:38.259Z,0.21
2024-04-24T23:37:46.124Z,0.14
2024-04-24T23:40:56.755Z,0.05
2024-04-24T23:44:05.361Z,-0.14
2024-04-24T23:47:15.751Z,-0.16
2024-04-24T23:50:26.453Z,-0.20
2024-04-24T23:53:37.473Z,-0.16
2024-04-24T23:56:55.408Z,-0.16
